Time;durP1;ratioP1;P1;durP2;ratioP2;P2;SDS_P1;SDS_P2;PMS_P1;PMS_P2;Temp;Humidity;BMP_temperature;BMP_pressure;BME280_temperature;BME280_humidity;BME280_pressure;Samples;Min_cycle;Max_cycle;Signal;HPM_P1;HPM_P2
2023/02/26 00:02:01;;;;;;;;;;;;;;;9.82;86.98;98875.53;1685732;85;20220;-82
2023/02/26 00:05:05;;;;;;;;;;;;;;;9.78;86.79;98878.36;1685307;85;20236;-82
2023/02/26 00:08:08;;;;;;;;;;;;;;;9.53;87.12;98872.61;1685580;85;20248;-81
2023/02/26 00:11:15;;;;;;;;;;;;;;;9.41;87.32;98861.95;1685893;85;20628;-81
2023/02/26 00:14:21;;;;;;;;;;;;;;;9.39;87.39;98864.06;1684559;85;20236;-82
2023/02/26 00:17:45;;;;;;;;;;;;;;;9.42;87.61;98863.14;1685727;85;20212;-81
2023/02/26 00:20:51;;;;;;;;;;;;;;;9.44;87.61;98865.13;1674241;84;20214;-82
2023/02/26 00:23:57;;;;;;;;;;;;;;;9.54;87.87;98852.98;1685526;85;20260;-81
2023/02/26 00:27:02;;;;;;;;;;;;;;;9.61;87.54;98864.25;1685863;85;20223;-82
2023/02/26 00:30:07;;;;;;;;;;;;;;;9.71;87.31;98866.06;1684093;85;20200;-81
2023/02/26 00:33:12;;;;;;;;;;;;;;;9.62;87.54;98880.95;1689460;83;20240;-82
2023/02/26 00:36:23;;;;;;;;;;;;;;;9.65;88.07;98876.98;1690766;85;20635;-81
2023/02/26 00:39:49;;;;;;;;;;;;;;;9.76;87.72;98881.83;1690253;85;20244;-82
2023/02/26 00:42:55;;;;;;;;;;;;;;;9.85;87.41;98885.22;1698352;84;20223;-82
2023/02/26 00:46:13;;;;;;;;;;;;;;;9.29;89.30;98886.27;1679854;85;20222;-81
2023/02/26 00:49:38;;;;;;;;;;;;;;;9.12;90.93;98884.38;1679107;85;20603;-82
2023/02/26 00:53:09;;;;;;;;;;;;;;;9.19;90.61;98881.71;1698394;84;20221;-82
2023/02/26 00:56:14;;;;;;;;;;;;;;;9.23;90.35;98891.18;1697466;84;20225;-82
2023/02/26 00:59:19;;;;;;;;;;;;;;;9.17;90.54;98890.59;1697778;84;20201;-83
2023/02/26 01:02:24;;;;;;;;;;;;;;;9.20;90.59;98893.78;1698564;84;20209;-82
2023/02/26 01:05:29;;;;;;;;;;;;;;;9.35;89.82;98887.34;1698168;84;20225;-82
2023/02/26 01:08:43;;;;;;;;;;;;;;;9.53;89.36;98877.23;1698323;84;20233;-82
2023/02/26 01:11:50;;;;;;;;;;;;;;;9.52;88.96;98881.86;1694879;84;20221;-82
2023/02/26 01:14:56;;;;;;;;;;;;;;;9.46;89.01;98889.50;1697481;84;20686;-82
2023/02/26 01:18:17;;;;;;;;;;;;;;;9.45;88.89;98896.82;1698516;84;20245;-83
2023/02/26 01:21:28;;;;;;;;;;;;;;;9.44;88.28;98899.77;1698485;84;20225;-82
2023/02/26 01:24:32;;;;;;;;;;;;;;;9.31;88.00;98907.36;1698208;84;20217;-83
2023/02/26 01:27:31;;;;;;;;;;;;;;;9.17;88.01;98915.16;1697020;84;20221;-82
2023/02/26 01:30:37;;;;;;;;;;;;;;;9.06;88.46;98911.11;1697106;84;20618;-82
2023/02/26 01:33:51;;;;;;;;;;;;;;;9.10;88.54;98906.11;1700403;83;20244;-82
2023/02/26 01:37:05;;;;;;;;;;;;;;;9.01;89.05;98908.67;1704408;84;20201;-83
2023/02/26 01:40:33;;;;;;;;;;;;;;;9.15;88.84;98915.89;1703905;84;20208;-83
2023/02/26 01:43:57;;;;;;;;;;;;;;;9.03;88.99;98916.12;1705425;84;20634;-82
2023/02/26 01:47:13;;;;;;;;;;;;;;;9.01;89.41;98910.87;1704454;84;20216;-82
2023/02/26 01:50:24;;;;;;;;;;;;;;;8.98;89.55;98913.15;1705410;84;20241;-82
2023/02/26 01:53:32;;;;;;;;;;;;;;;9.11;89.23;98914.08;1705163;84;20626;-81
2023/02/26 01:56:36;;;;;;;;;;;;;;;9.08;89.72;98920.45;1704605;84;20213;-82
2023/02/26 01:59:44;;;;;;;;;;;;;;;9.11;89.23;98932.33;1704136;84;20236;-82
2023/02/26 02:02:49;;;;;;;;;;;;;;;9.03;89.11;98940.66;1703852;84;20217;-81
2023/02/26 02:06:01;;;;;;;;;;;;;;;9.15;88.83;98947.26;1705250;84;20216;-82
2023/02/26 02:09:04;;;;;;;;;;;;;;;9.14;88.60;98938.77;1705451;84;20205;-81
2023/02/26 02:12:14;;;;;;;;;;;;;;;9.11;88.89;98951.43;1703790;84;20729;-81
2023/02/26 02:15:35;;;;;;;;;;;;;;;8.98;89.30;98947.23;1704858;84;20229;-82
2023/02/26 02:19:05;;;;;;;;;;;;;;;9.02;89.60;98948.53;1705421;84;20220;-81
2023/02/26 02:22:27;;;;;;;;;;;;;;;9.17;89.65;98954.71;1705429;84;20216;-82
2023/02/26 02:25:55;;;;;;;;;;;;;;;9.22;89.11;98959.04;1705403;84;20189;-82
2023/02/26 02:29:23;;;;;;;;;;;;;;;9.24;89.42;98958.34;1705391;84;20209;-82
2023/02/26 02:32:57;;;;;;;;;;;;;;;9.20;89.20;98960.62;1705427;84;20220;-82
2023/02/26 02:36:12;;;;;;;;;;;;;;;9.32;88.58;98952.73;1703893;84;20622;-82
2023/02/26 02:39:20;;;;;;;;;;;;;;;9.29;88.00;98940.84;1705460;84;20200;-82
2023/02/26 02:42:28;;;;;;;;;;;;;;;9.23;88.01;98943.55;1705364;84;20216;-82
2023/02/26 02:45:51;;;;;;;;;;;;;;;9.20;88.10;98950.23;1704751;84;20689;-81
2023/02/26 02:49:03;;;;;;;;;;;;;;;9.12;88.26;98954.47;1705126;84;20205;-82
2023/02/26 02:52:19;;;;;;;;;;;;;;;9.00;88.91;98948.74;1705336;84;20220;-82
2023/02/26 02:55:33;;;;;;;;;;;;;;;9.11;88.58;98950.06;1703847;84;20220;-82
2023/02/26 02:58:40;;;;;;;;;;;;;;;9.11;88.46;98948.17;1703821;84;20244;-82
2023/02/26 03:01:45;;;;;;;;;;;;;;;9.09;88.55;98944.81;1704164;84;20204;-82
2023/02/26 03:04:50;;;;;;;;;;;;;;;9.14;88.42;98940.13;1705384;84;20240;-82
2023/02/26 03:08:01;;;;;;;;;;;;;;;9.19;88.40;98937.11;1703871;84;20245;-82
2023/02/26 03:11:08;;;;;;;;;;;;;;;9.19;88.60;98943.09;1703925;84;20389;-81
2023/02/26 03:14:15;;;;;;;;;;;;;;;9.24;88.66;98941.13;1705478;84;20216;-82
2023/02/26 03:17:29;;;;;;;;;;;;;;;9.37;88.52;98935.23;1703914;84;20245;-81
2023/02/26 03:20:40;;;;;;;;;;;;;;;9.38;88.14;98936.91;1705405;84;20240;-82
2023/02/26 03:24:05;;;;;;;;;;;;;;;9.42;87.83;98938.71;1705031;84;20232;-82
2023/02/26 03:27:33;;;;;;;;;;;;;;;9.34;87.97;98969.73;1703406;84;21106;-81
2023/02/26 03:30:59;;;;;;;;;;;;;;;9.14;88.45;98983.77;1703801;84;20216;-81
2023/02/26 03:34:13;;;;;;;;;;;;;;;9.18;88.27;98991.36;1705247;84;20295;-82
2023/02/26 03:37:30;;;;;;;;;;;;;;;9.08;88.33;99005.00;1711896;84;20223;-82
2023/02/26 03:40:37;;;;;;;;;;;;;;;9.17;88.17;99016.96;1712338;84;20235;-81
2023/02/26 03:43:46;;;;;;;;;;;;;;;9.24;87.66;99025.19;1712022;84;20215;-82
2023/02/26 03:46:55;;;;;;;;;;;;;;;9.20;88.09;99036.17;1710983;84;20180;-81
2023/02/26 03:50:05;;;;;;;;;;;;;;;9.25;87.39;99045.12;1712065;84;20215;-82
2023/02/26 03:53:14;;;;;;;;;;;;;;;9.16;87.35;99055.34;1711907;84;20742;-82
2023/02/26 03:56:38;;;;;;;;;;;;;;;9.17;87.52;99044.73;1711943;84;20231;-82
2023/02/26 03:59:46;;;;;;;;;;;;;;;9.40;86.72;99050.78;1711614;84;20267;-81
2023/02/26 04:03:17;;;;;;;;;;;;;;;8.81;88.53;99057.14;1703494;84;20211;-81
2023/02/26 04:06:22;;;;;;;;;;;;;;;8.72;89.81;99056.42;1705373;84;20218;-81
2023/02/26 04:09:26;;;;;;;;;;;;;;;8.41;90.93;99060.28;1705417;84;20215;-82
2023/02/26 04:12:31;;;;;;;;;;;;;;;8.41;90.81;99063.01;1705337;84;20239;-82
2023/02/26 04:15:36;;;;;;;;;;;;;;;8.47;90.34;99078.26;1705685;84;20187;-81
2023/02/26 04:18:41;;;;;;;;;;;;;;;8.52;90.34;99082.12;1704380;84;20219;-81
2023/02/26 04:21:46;;;;;;;;;;;;;;;8.35;91.26;99085.55;1705416;84;20246;-82
2023/02/26 04:24:50;;;;;;;;;;;;;;;8.32;92.21;99117.77;1703882;84;20628;-81
2023/02/26 04:27:56;;;;;;;;;;;;;;;8.41;91.78;99136.58;1710911;84;20600;-81
2023/02/26 04:31:01;;;;;;;;;;;;;;;8.38;91.56;99147.04;1711417;84;20223;-82
2023/02/26 04:34:06;;;;;;;;;;;;;;;8.27;92.01;99161.09;1711139;84;20239;-81
2023/02/26 04:37:12;;;;;;;;;;;;;;;8.22;92.09;99164.38;1712696;82;20632;-81
2023/02/26 04:40:17;;;;;;;;;;;;;;;8.17;92.66;99161.39;1715201;84;20207;-82
2023/02/26 04:43:22;;;;;;;;;;;;;;;8.23;92.59;99157.90;1713264;84;20220;-82
2023/02/26 04:46:39;;;;;;;;;;;;;;;8.31;92.67;99149.63;1714269;84;20624;-81
2023/02/26 04:49:43;;;;;;;;;;;;;;;8.35;92.61;99143.30;1713276;84;20614;-82
2023/02/26 04:52:48;;;;;;;;;;;;;;;8.45;92.51;99137.89;1714661;84;20404;-81
2023/02/26 04:55:54;;;;;;;;;;;;;;;8.51;92.40;99155.87;1714762;84;20203;-81
2023/02/26 04:59:00;;;;;;;;;;;;;;;8.50;93.01;99175.99;1713843;84;20215;-82
2023/02/26 05:02:05;;;;;;;;;;;;;;;8.54;93.20;99183.59;1714272;84;20200;-81
2023/02/26 05:05:10;;;;;;;;;;;;;;;8.60;92.74;99186.91;1714716;84;20215;-82
2023/02/26 05:08:15;;;;;;;;;;;;;;;8.51;93.22;99196.23;1713373;83;20248;-82
2023/02/26 05:11:14;;;;;;;;;;;;;;;8.54;93.11;99201.84;1714660;84;20207;-82
2023/02/26 05:14:18;;;;;;;;;;;;;;;8.50;93.19;99190.98;1713123;84;20251;-82
2023/02/26 05:17:24;;;;;;;;;;;;;;;8.55;93.09;99198.06;1714400;84;20208;-81
2023/02/26 05:20:28;;;;;;;;;;;;;;;8.56;92.81;99191.09;1713165;84;20244;-82
2023/02/26 05:23:32;;;;;;;;;;;;;;;8.50;93.00;99182.80;1713257;84;20216;-82
2023/02/26 05:26:37;;;;;;;;;;;;;;;8.54;92.62;99176.78;1714728;84;20204;-82
2023/02/26 05:29:43;;;;;;;;;;;;;;;8.55;92.67;99178.47;1713428;84;20215;-82
2023/02/26 05:32:48;;;;;;;;;;;;;;;8.44;92.96;99186.63;1713384;84;20220;-82
2023/02/26 05:35:52;;;;;;;;;;;;;;;8.59;92.38;99185.75;1714795;84;20243;-82
2023/02/26 05:38:58;;;;;;;;;;;;;;;8.49;92.54;99191.50;1714203;84;20216;-81
2023/02/26 05:42:03;;;;;;;;;;;;;;;8.49;92.74;99181.12;1713212;84;20671;-81
2023/02/26 05:45:06;;;;;;;;;;;;;;;8.44;93.49;99184.42;1714868;84;20240;-82
2023/02/26 05:48:10;;;;;;;;;;;;;;;8.53;93.44;99192.82;1714022;84;20236;-82
2023/02/26 05:51:15;;;;;;;;;;;;;;;8.54;93.34;99203.20;1714793;84;20695;-81
2023/02/26 05:54:19;;;;;;;;;;;;;;;8.59;92.65;99196.13;1714805;84;20215;-81
2023/02/26 05:57:24;;;;;;;;;;;;;;;8.56;92.73;99210.66;1714652;84;20243;-82
2023/02/26 06:00:29;;;;;;;;;;;;;;;8.63;92.18;99223.34;1713353;84;20203;-81
2023/02/26 06:03:34;;;;;;;;;;;;;;;8.56;91.94;99230.61;1713941;84;20231;-81
2023/02/26 06:06:39;;;;;;;;;;;;;;;8.50;91.33;99242.24;1714686;84;20227;-81
2023/02/26 06:09:44;;;;;;;;;;;;;;;8.38;91.32;99259.59;1713921;84;20264;-81
2023/02/26 06:12:50;;;;;;;;;;;;;;;8.32;90.88;99268.47;1714703;84;20203;-81
2023/02/26 06:15:57;;;;;;;;;;;;;;;8.30;90.99;99274.64;1714727;84;21132;-81
2023/02/26 06:19:02;;;;;;;;;;;;;;;8.17;91.46;99273.91;1713754;84;20216;-82
2023/02/26 06:22:07;;;;;;;;;;;;;;;8.19;91.56;99260.13;1714767;84;20219;-81
2023/02/26 06:25:12;;;;;;;;;;;;;;;8.15;91.78;99273.27;1714631;84;20239;-80
2023/02/26 06:28:16;;;;;;;;;;;;;;;8.06;91.98;99274.38;1714855;84;20649;-81
2023/02/26 06:31:21;;;;;;;;;;;;;;;8.08;91.89;99257.84;1713002;83;20624;-80
2023/02/26 06:34:25;;;;;;;;;;;;;;;8.05;91.99;99274.05;1713042;84;20259;-81
2023/02/26 06:37:29;;;;;;;;;;;;;;;8.02;92.03;99278.50;1711195;82;20259;-81
2023/02/26 06:40:34;;;;;;;;;;;;;;;8.05;92.05;99289.55;1705530;84;20208;-80
2023/02/26 06:43:38;;;;;;;;;;;;;;;8.05;92.02;99271.33;1706574;84;20271;-80
2023/02/26 06:46:43;;;;;;;;;;;;;;;8.20;91.49;99282.23;1706552;84;20252;-81
2023/02/26 06:49:49;;;;;;;;;;;;;;;8.06;92.19;99292.08;1705342;84;20251;-81
2023/02/26 06:52:54;;;;;;;;;;;;;;;7.91;93.11;99292.57;1706729;84;20691;-82
2023/02/26 06:55:58;;;;;;;;;;;;;;;7.99;93.17;99318.86;1707136;84;20247;-81
2023/02/26 06:59:02;;;;;;;;;;;;;;;7.94;93.31;99318.89;1707151;84;20215;-81
2023/02/26 07:02:08;;;;;;;;;;;;;;;7.94;93.32;99325.70;1707206;84;20215;-80
2023/02/26 07:05:07;;;;;;;;;;;;;;;7.91;93.24;99356.55;1705911;84;20236;-82
2023/02/26 07:08:15;;;;;;;;;;;;;;;8.02;92.79;99345.22;1707148;84;20637;-81
2023/02/26 07:11:19;;;;;;;;;;;;;;;8.03;92.70;99365.12;1705980;84;21072;-81
2023/02/26 07:14:24;;;;;;;;;;;;;;;8.04;92.72;99373.63;1707225;84;20243;-81
2023/02/26 07:17:29;;;;;;;;;;;;;;;8.14;92.39;99348.37;1705732;84;20220;-80
2023/02/26 07:20:34;;;;;;;;;;;;;;;8.15;92.35;99358.22;1706063;84;20243;-81
2023/02/26 07:23:37;;;;;;;;;;;;;;;8.26;92.06;99371.39;1707104;84;20223;-81
2023/02/26 07:26:43;;;;;;;;;;;;;;;8.34;91.78;99372.69;1707290;84;20176;-81
2023/02/26 07:29:48;;;;;;;;;;;;;;;8.29;91.92;99383.29;1706833;84;20224;-81
2023/02/26 07:32:53;;;;;;;;;;;;;;;8.27;91.95;99374.44;1707106;84;20231;-81
2023/02/26 07:35:57;;;;;;;;;;;;;;;8.30;92.17;99390.42;1683822;83;20232;-80
2023/02/26 07:39:02;;;;;;;;;;;;;;;8.46;91.50;99385.36;1697771;82;20311;-82
2023/02/26 07:42:10;;;;;;;;;;;;;;;8.41;91.22;99398.18;1705514;83;20231;-81
2023/02/26 07:45:21;;;;;;;;;;;;;;;8.53;90.89;99395.88;1672634;84;20220;-82
2023/02/26 07:48:24;;;;;;;;;;;;;;;8.59;90.50;99388.30;1696807;84;20237;-80
2023/02/26 07:51:28;;;;;;;;;;;;;;;8.70;90.14;99395.17;1697658;84;20205;-81
2023/02/26 07:54:32;;;;;;;;;;;;;;;8.75;89.83;99387.30;1682403;84;20208;-81
2023/02/26 07:57:37;;;;;;;;;;;;;;;8.75;88.97;99406.87;1696438;84;20236;-80
2023/02/26 08:00:41;;;;;;;;;;;;;;;8.72;88.80;99405.39;1696607;84;20224;-82
2023/02/26 08:03:47;;;;;;;;;;;;;;;8.77;88.82;99415.22;1695109;84;20300;-82
2023/02/26 08:06:56;;;;;;;;;;;;;;;8.82;88.84;99416.87;1690517;84;20288;-82
2023/02/26 08:09:56;;;;;;;;;;;;;;;8.89;89.01;99426.01;1695363;84;20209;-80
2023/02/26 08:13:05;;;;;;;;;;;;;;;8.96;88.69;99409.20;1701520;84;20224;-81
2023/02/26 08:16:23;;;;;;;;;;;;;;;8.91;87.97;99429.37;1697560;84;20189;-82
2023/02/26 08:19:27;;;;;;;;;;;;;;;9.00;87.67;99421.13;1697733;84;20232;-82
2023/02/26 08:22:33;;;;;;;;;;;;;;;9.06;87.32;99417.62;1671210;86;20215;-81
2023/02/26 08:25:39;;;;;;;;;;;;;;;8.82;88.20;99416.02;1671658;84;20203;-82
2023/02/26 08:28:45;;;;;;;;;;;;;;;8.98;87.58;99419.08;1682900;84;20300;-81
2023/02/26 08:31:43;;;;;;;;;;;;;;;8.91;87.25;99419.84;1695507;84;20228;-82
2023/02/26 08:34:54;;;;;;;;;;;;;;;8.72;87.64;99431.29;1696356;84;20288;-82
2023/02/26 08:37:58;;;;;;;;;;;;;;;8.76;87.32;99435.86;1698696;84;20236;-81
2023/02/26 08:41:07;;;;;;;;;;;;;;;8.72;87.56;99438.11;1742292;81;20236;-80
2023/02/26 08:44:14;;;;;;;;;;;;;;;8.76;87.30;99439.44;1746403;82;20267;-81
2023/02/26 08:47:20;;;;;;;;;;;;;;;8.78;87.36;99465.98;1738312;82;20300;-81
2023/02/26 08:50:28;;;;;;;;;;;;;;;8.86;87.34;99454.16;1743188;82;20224;-82
2023/02/26 08:54:00;;;;;;;;;;;;;;;8.91;86.98;99470.30;1741373;82;20236;-82
2023/02/26 08:57:04;;;;;;;;;;;;;;;8.96;86.61;99473.30;1746357;82;20300;-82
2023/02/26 09:00:11;;;;;;;;;;;;;;;8.99;86.10;99472.09;1748337;82;20316;-83
2023/02/26 09:03:21;;;;;;;;;;;;;;;8.95;86.04;99485.25;1727145;82;20225;-82
2023/02/26 09:06:19;;;;;;;;;;;;;;;8.96;85.56;99493.77;1718364;83;20247;-81
2023/02/26 09:09:24;;;;;;;;;;;;;;;8.93;85.70;99494.64;1733838;82;20232;-80
2023/02/26 09:12:29;;;;;;;;;;;;;;;8.94;85.26;99499.94;1732184;82;20276;-81
2023/02/26 09:15:33;;;;;;;;;;;;;;;8.96;84.99;99496.48;1744671;82;20440;-82
2023/02/26 09:18:43;;;;;;;;;;;;;;;8.98;84.90;99500.91;1745612;82;20209;-82
2023/02/26 09:21:49;;;;;;;;;;;;;;;8.97;85.17;99515.06;1732205;82;20205;-83
2023/02/26 09:24:56;;;;;;;;;;;;;;;8.98;85.12;99514.02;1740108;82;20229;-83
2023/02/26 09:28:03;;;;;;;;;;;;;;;8.96;84.98;99523.77;1736547;82;20169;-83
2023/02/26 09:31:07;;;;;;;;;;;;;;;9.00;84.84;99511.98;1721299;82;20223;-84
2023/02/26 09:34:14;;;;;;;;;;;;;;;9.00;84.96;99509.77;1720649;82;20227;-82
2023/02/26 09:37:19;;;;;;;;;;;;;;;9.01;84.94;99515.55;1743439;82;20232;-82
2023/02/26 09:40:32;;;;;;;;;;;;;;;9.02;84.66;99519.96;1740191;82;20254;-81
2023/02/26 09:43:42;;;;;;;;;;;;;;;9.05;84.57;99534.61;1722921;83;20206;-80
2023/02/26 09:47:12;;;;;;;;;;;;;;;9.08;84.54;99527.39;1722149;83;20238;-81
2023/02/26 09:50:21;;;;;;;;;;;;;;;9.09;84.50;99518.20;1739216;82;20203;-81
2023/02/26 09:53:32;;;;;;;;;;;;;;;9.15;84.34;99524.27;1736046;82;20229;-82
2023/02/26 09:56:40;;;;;;;;;;;;;;;9.16;83.96;99515.05;1747455;82;20264;-81
2023/02/26 09:59:44;;;;;;;;;;;;;;;9.20;84.14;99519.94;1735959;82;20202;-82
2023/02/26 10:03:18;;;;;;;;;;;;;;;9.33;84.14;99513.84;1730153;82;20239;-82
2023/02/26 10:06:38;;;;;;;;;;;;;;;9.35;83.94;99521.31;1717427;82;20739;-82
2023/02/26 10:10:04;;;;;;;;;;;;;;;9.42;83.66;99516.81;1742440;82;20642;-81
2023/02/26 10:13:09;;;;;;;;;;;;;;;9.42;83.28;99500.95;1673791;82;20223;-81
2023/02/26 10:16:24;;;;;;;;;;;;;;;9.38;83.21;99500.48;1724391;83;20209;-82
2023/02/26 10:19:33;;;;;;;;;;;;;;;9.40;82.89;99513.92;1733358;83;20224;-82
2023/02/26 10:22:44;;;;;;;;;;;;;;;9.32;82.52;99526.33;1720786;83;20569;-81
2023/02/26 10:25:50;;;;;;;;;;;;;;;9.23;82.74;99528.28;1720131;82;20256;-82
2023/02/26 10:29:18;;;;;;;;;;;;;;;9.27;82.94;99528.73;1751164;82;20296;-81
2023/02/26 10:32:36;;;;;;;;;;;;;;;9.29;82.70;99521.23;1723654;82;20232;-81
2023/02/26 10:35:37;;;;;;;;;;;;;;;9.30;82.52;99525.12;1748403;82;20219;-83
2023/02/26 10:38:44;;;;;;;;;;;;;;;9.24;82.52;99528.61;1745489;82;20213;-82
2023/02/26 10:41:48;;;;;;;;;;;;;;;9.36;82.31;99517.57;1719793;82;20233;-81
2023/02/26 10:45:05;;;;;;;;;;;;;;;9.39;81.67;99513.08;1729129;83;20169;-82
2023/02/26 10:48:28;;;;;;;;;;;;;;;9.41;81.50;99530.14;1727748;83;20233;-83
2023/02/26 10:51:37;;;;;;;;;;;;;;;9.40;81.51;99542.58;1732108;82;20575;-82
2023/02/26 10:54:42;;;;;;;;;;;;;;;9.33;81.25;99547.95;1737519;82;20357;-81
2023/02/26 10:57:49;;;;;;;;;;;;;;;9.31;81.47;99546.44;1735564;81;20230;-81
2023/02/26 11:00:56;;;;;;;;;;;;;;;9.36;80.97;99557.15;1691145;85;20238;-81
2023/02/26 11:04:08;;;;;;;;;;;;;;;9.29;80.71;99549.36;1682215;85;20208;-81
2023/02/26 11:07:13;;;;;;;;;;;;;;;9.31;80.56;99542.34;1691174;85;20288;-82
2023/02/26 11:10:21;;;;;;;;;;;;;;;9.19;80.63;99530.53;1682549;85;20228;-81
2023/02/26 11:13:29;;;;;;;;;;;;;;;9.26;81.11;99536.08;1684279;85;20201;-82
2023/02/26 11:16:34;;;;;;;;;;;;;;;9.34;81.12;99518.78;1676940;85;20209;-81
2023/02/26 11:19:47;;;;;;;;;;;;;;;9.45;80.35;99517.78;1691924;85;20689;-82
2023/02/26 11:22:56;;;;;;;;;;;;;;;9.50;80.18;99524.04;1675722;85;20386;-82
2023/02/26 11:26:07;;;;;;;;;;;;;;;9.57;80.27;99518.69;1690092;85;20261;-82
2023/02/26 11:29:12;;;;;;;;;;;;;;;9.64;80.37;99517.72;1689602;85;20249;-81
2023/02/26 11:32:23;;;;;;;;;;;;;;;9.61;80.25;99515.39;1691216;85;20233;-82
2023/02/26 11:35:30;;;;;;;;;;;;;;;9.65;79.47;99518.59;1691528;85;20237;-83
2023/02/26 11:38:35;;;;;;;;;;;;;;;9.53;78.58;99518.73;1690358;85;20253;-81
2023/02/26 11:41:40;;;;;;;;;;;;;;;9.46;78.80;99518.13;1690515;85;20233;-82
2023/02/26 11:44:48;;;;;;;;;;;;;;;9.49;79.24;99525.08;1665381;85;20699;-82
2023/02/26 11:47:54;;;;;;;;;;;;;;;9.38;79.70;99541.42;1687863;85;20249;-82
2023/02/26 11:51:02;;;;;;;;;;;;;;;9.48;79.65;99552.90;1689446;85;20205;-82
2023/02/26 11:54:07;;;;;;;;;;;;;;;9.55;79.18;99565.79;1689018;85;20672;-82
2023/02/26 11:57:16;;;;;;;;;;;;;;;9.52;78.65;99567.55;1689404;85;20209;-82
2023/02/26 12:00:26;;;;;;;;;;;;;;;9.54;77.98;99582.69;1687962;85;20221;-82
2023/02/26 12:03:35;;;;;;;;;;;;;;;9.52;77.72;99596.22;1687940;85;20205;-82
2023/02/26 12:06:40;;;;;;;;;;;;;;;9.51;77.68;99601.35;1689432;85;20305;-81
2023/02/26 12:09:46;;;;;;;;;;;;;;;9.29;78.15;99603.94;1689429;85;20209;-81
2023/02/26 12:13:00;;;;;;;;;;;;;;;9.26;78.54;99617.95;1689115;85;20241;-82
2023/02/26 12:16:09;;;;;;;;;;;;;;;9.15;78.89;99612.94;1689374;85;20225;-81
2023/02/26 12:19:18;;;;;;;;;;;;;;;9.05;79.42;99621.38;1687939;85;20257;-81
2023/02/26 12:22:35;;;;;;;;;;;;;;;8.85;80.70;99632.46;1679626;85;20250;-82
2023/02/26 12:25:50;;;;;;;;;;;;;;;8.82;81.47;99636.39;1689383;85;20237;-81
2023/02/26 12:29:33;;;;;;;;;;;;;;;8.90;81.75;99642.31;1688298;85;20221;-81
2023/02/26 12:32:50;;;;;;;;;;;;;;;8.91;82.02;99644.84;1687674;85;20248;-81
2023/02/26 12:36:02;;;;;;;;;;;;;;;8.93;82.32;99651.47;1689277;85;20206;-81
2023/02/26 12:39:21;;;;;;;;;;;;;;;8.98;82.34;99655.02;1687774;85;20217;-81
2023/02/26 12:42:44;;;;;;;;;;;;;;;9.02;82.59;99657.72;1660924;85;20250;-81
2023/02/26 12:46:11;;;;;;;;;;;;;;;9.06;82.38;99657.69;1671749;86;20657;-81
2023/02/26 12:49:44;;;;;;;;;;;;;;;9.16;82.14;99663.22;1697630;84;20215;-81
2023/02/26 12:53:10;;;;;;;;;;;;;;;9.15;82.29;99666.14;1681085;84;21137;-81
2023/02/26 12:56:39;;;;;;;;;;;;;;;9.17;82.18;99668.16;1698265;84;20243;-82
2023/02/26 13:00:11;;;;;;;;;;;;;;;9.24;82.29;99665.05;1698581;84;20483;-82
2023/02/26 13:03:37;;;;;;;;;;;;;;;9.35;82.43;99663.23;1696756;84;20219;-81
2023/02/26 13:06:56;;;;;;;;;;;;;;;9.45;82.37;99654.78;1698109;84;20378;-81
2023/02/26 13:10:12;;;;;;;;;;;;;;;9.50;82.55;99650.98;1696847;84;20227;-82
2023/02/26 13:13:25;;;;;;;;;;;;;;;9.66;82.41;99660.91;1664933;84;20247;-81
2023/02/26 13:16:53;;;;;;;;;;;;;;;9.65;82.66;99653.24;1648657;84;20211;-81
2023/02/26 13:20:04;;;;;;;;;;;;;;;9.81;82.20;99644.02;1696947;84;20258;-82
2023/02/26 13:23:08;;;;;;;;;;;;;;;9.59;83.14;99644.92;1698368;84;20223;-82
2023/02/26 13:26:15;;;;;;;;;;;;;;;9.65;83.23;99641.48;1698318;84;20632;-81
2023/02/26 13:29:22;;;;;;;;;;;;;;;9.57;83.36;99632.00;1698328;84;21143;-82
2023/02/26 13:32:28;;;;;;;;;;;;;;;9.57;83.79;99627.90;1698348;84;20203;-81
2023/02/26 13:35:42;;;;;;;;;;;;;;;9.50;84.24;99618.22;1696680;84;20222;-82
2023/02/26 13:39:03;;;;;;;;;;;;;;;9.33;84.78;99618.91;1696877;84;20219;-82
2023/02/26 13:42:26;;;;;;;;;;;;;;;9.34;85.01;99615.67;1698341;84;20628;-82
2023/02/26 13:45:52;;;;;;;;;;;;;;;9.15;85.71;99617.03;1704338;82;20374;-81
2023/02/26 13:49:07;;;;;;;;;;;;;;;9.13;85.84;99613.66;1707182;84;20692;-81
2023/02/26 13:52:11;;;;;;;;;;;;;;;9.17;85.82;99613.59;1707110;84;20641;-82
2023/02/26 13:55:11;;;;;;;;;;;;;;;9.25;85.59;99601.25;1678542;85;20242;-81
2023/02/26 13:58:29;;;;;;;;;;;;;;;9.22;85.67;99592.05;1692561;85;20221;-80
2023/02/26 14:01:54;;;;;;;;;;;;;;;9.15;85.66;99593.33;1745840;82;20316;-81
2023/02/26 14:04:55;;;;;;;;;;;;;;;8.93;86.25;99613.28;1745543;82;20642;-81
2023/02/26 14:08:03;;;;;;;;;;;;;;;8.81;87.20;99618.33;1745342;82;20637;-81
2023/02/26 14:11:12;;;;;;;;;;;;;;;8.69;87.57;99629.31;1733256;82;20229;-81
2023/02/26 14:14:25;;;;;;;;;;;;;;;8.61;88.33;99634.81;1746719;82;20631;-81
2023/02/26 14:17:38;;;;;;;;;;;;;;;8.73;88.33;99647.53;1745398;82;20232;-81
2023/02/26 14:20:45;;;;;;;;;;;;;;;8.78;87.88;99649.20;1747208;82;20212;-80
2023/02/26 14:23:50;;;;;;;;;;;;;;;8.76;87.60;99638.48;1706476;82;20220;-81
2023/02/26 14:26:58;;;;;;;;;;;;;;;8.76;87.09;99627.58;1745944;82;20237;-81
2023/02/26 14:30:16;;;;;;;;;;;;;;;7.51;91.60;99618.91;1747214;82;20249;-81
2023/02/26 14:33:24;;;;;;;;;;;;;;;7.26;94.91;99605.36;1747525;82;20253;-81
2023/02/26 14:36:31;;;;;;;;;;;;;;;7.09;96.65;99590.92;1745995;82;20622;-81
2023/02/26 14:39:40;;;;;;;;;;;;;;;6.93;98.14;99577.86;1747549;82;20622;-81
2023/02/26 14:42:47;;;;;;;;;;;;;;;6.97;98.92;99571.06;1745980;82;20213;-81
2023/02/26 14:45:51;;;;;;;;;;;;;;;6.94;99.59;99561.88;1747900;82;20642;-80
2023/02/26 14:48:56;;;;;;;;;;;;;;;7.11;99.29;99558.13;1751264;82;20216;-81
2023/02/26 14:52:08;;;;;;;;;;;;;;;7.04;99.37;99559.83;1752948;82;20255;-81
2023/02/26 14:55:30;;;;;;;;;;;;;;;6.96;99.93;99562.55;1752353;82;20228;-81
2023/02/26 14:58:53;;;;;;;;;;;;;;;7.02;100.00;99573.60;1752901;82;20204;-81
2023/02/26 15:02:19;;;;;;;;;;;;;;;7.00;100.00;99578.34;1683978;84;20644;-81
2023/02/26 15:05:40;;;;;;;;;;;;;;;7.01;100.00;99580.55;1713916;84;20263;-81
2023/02/26 15:09:01;;;;;;;;;;;;;;;6.98;100.00;99605.38;1715996;83;20656;-82
2023/02/26 15:12:15;;;;;;;;;;;;;;;6.74;100.00;99616.59;1714303;84;20219;-81
2023/02/26 15:15:40;;;;;;;;;;;;;;;6.71;100.00;99614.71;1690931;85;20234;-82
2023/02/26 15:19:06;;;;;;;;;;;;;;;6.67;100.00;99614.19;1752959;82;20689;-81
2023/02/26 15:22:20;;;;;;;;;;;;;;;6.70;100.00;99623.89;1753246;82;20711;-81
2023/02/26 15:25:40;;;;;;;;;;;;;;;6.84;100.00;99645.81;1752549;82;20217;-81
2023/02/26 15:28:47;;;;;;;;;;;;;;;6.83;100.00;99645.48;1751546;82;20263;-82
2023/02/26 15:32:04;;;;;;;;;;;;;;;6.98;100.00;99642.09;1752435;82;20252;-81
2023/02/26 15:35:26;;;;;;;;;;;;;;;6.90;100.00;99638.33;1752912;82;20212;-81
2023/02/26 15:38:30;;;;;;;;;;;;;;;6.75;100.00;99641.90;1753258;82;20217;-82
2023/02/26 15:41:36;;;;;;;;;;;;;;;6.75;100.00;99657.70;1753065;82;20212;-81
2023/02/26 15:44:41;;;;;;;;;;;;;;;6.74;100.00;99670.10;1753206;82;20216;-82
2023/02/26 15:47:46;;;;;;;;;;;;;;;6.73;100.00;99670.61;1751451;81;20221;-81
2023/02/26 15:50:53;;;;;;;;;;;;;;;6.69;100.00;99686.06;1753119;82;20614;-81
2023/02/26 15:54:02;;;;;;;;;;;;;;;6.71;100.00;99705.76;1753013;82;20391;-81
2023/02/26 15:56:59;;;;;;;;;;;;;;;6.84;100.00;99727.88;1751476;82;20684;-81
2023/02/26 16:00:15;;;;;;;;;;;;;;;6.86;100.00;99722.60;1753168;82;20221;-82
2023/02/26 16:03:21;;;;;;;;;;;;;;;6.98;100.00;99731.31;1751473;82;20216;-81
2023/02/26 16:06:32;;;;;;;;;;;;;;;6.98;100.00;99747.63;1752346;82;20216;-82
2023/02/26 16:09:41;;;;;;;;;;;;;;;6.98;100.00;99753.57;1752817;82;20224;-81
2023/02/26 16:12:48;;;;;;;;;;;;;;;6.98;100.00;99765.80;1752974;82;20653;-82
2023/02/26 16:15:54;;;;;;;;;;;;;;;6.85;100.00;99782.59;1751444;82;20231;-82
2023/02/26 16:19:00;;;;;;;;;;;;;;;6.74;100.00;99772.87;1753279;82;20225;-81
2023/02/26 16:22:05;;;;;;;;;;;;;;;6.72;100.00;99773.53;1753195;82;20216;-82
2023/02/26 16:25:16;;;;;;;;;;;;;;;6.62;100.00;99760.59;1753254;82;20209;-81
2023/02/26 16:28:24;;;;;;;;;;;;;;;6.53;100.00;99767.01;1753003;82;20606;-81
2023/02/26 16:31:32;;;;;;;;;;;;;;;6.42;100.00;99749.66;1753120;82;20192;-82
2023/02/26 16:34:57;;;;;;;;;;;;;;;6.32;100.00;99753.85;1753127;82;20221;-81
2023/02/26 16:38:01;;;;;;;;;;;;;;;6.28;100.00;99753.32;1753095;82;20221;-82
2023/02/26 16:41:15;;;;;;;;;;;;;;;6.20;100.00;99757.85;1753086;82;20228;-81